sensor_id;sensor_type;location;lat;lon;timestamp;P1;P2;P0
49343;PMS5003;35210;41.606;-87.602;2023-10-09T00:00:14;2.00;2.00;1.00
49343;PMS5003;35210;41.606;-87.602;2023-10-09T00:03:16;3.80;2.80;2.00
49343;PMS5003;35210;41.606;-87.602;2023-10-09T00:05:48;2.40;2.40;1.40
49343;PMS5003;35210;41.606;-87.602;2023-10-09T00:08:19;2.20;2.20;1.00
49343;PMS5003;35210;41.606;-87.602;2023-10-09T00:10:52;3.00;2.00;1.20
49343;PMS5003;35210;41.606;-87.602;2023-10-09T00:13:20;1.00;1.00;0.20
49343;PMS5003;35210;41.606;-87.602;2023-10-09T00:15:57;1.00;1.00;1.00
49343;PMS5003;35210;41.606;-87.602;2023-10-09T00:18:36;3.20;2.00;1.00
49343;PMS5003;35210;41.606;-87.602;2023-10-09T00:21:04;2.20;2.00;1.00
49343;PMS5003;35210;41.606;-87.602;2023-10-09T00:23:38;2.00;2.00;1.00
49343;PMS5003;35210;41.606;-87.602;2023-10-09T00:26:07;1.20;1.00;1.00
49343;PMS5003;35210;41.606;-87.602;2023-10-09T00:28:37;3.00;3.00;1.40
49343;PMS5003;35210;41.606;-87.602;2023-10-09T00:31:10;2.20;2.00;1.00
49343;PMS5003;35210;41.606;-87.602;2023-10-09T00:33:41;3.00;3.00;1.80
49343;PMS5003;35210;41.606;-87.602;2023-10-09T00:36:09;2.80;2.80;2.00
49343;PMS5003;35210;41.606;-87.602;2023-10-09T00:38:43;2.00;2.00;1.00
49343;PMS5003;35210;41.606;-87.602;2023-10-09T00:41:14;2.80;2.60;1.20
49343;PMS5003;35210;41.606;-87.602;2023-10-09T00:43:47;2.60;2.60;2.00
49343;PMS5003;35210;41.606;-87.602;2023-10-09T00:46:21;2.00;2.00;1.60
49343;PMS5003;35210;41.606;-87.602;2023-10-09T00:48:54;3.00;3.00;1.60
49343;PMS5003;35210;41.606;-87.602;2023-10-09T00:51:25;3.00;3.00;2.00
49343;PMS5003;35210;41.606;-87.602;2023-10-09T00:54:00;4.20;3.00;2.00
49343;PMS5003;35210;41.606;-87.602;2023-10-09T00:56:33;3.60;2.80;2.00
49343;PMS5003;35210;41.606;-87.602;2023-10-09T00:59:08;5.20;3.00;2.20
49343;PMS5003;35210;41.606;-87.602;2023-10-09T01:01:43;4.60;3.00;2.00
49343;PMS5003;35210;41.606;-87.602;2023-10-09T01:04:23;2.00;2.00;2.00
49343;PMS5003;35210;41.606;-87.602;2023-10-09T01:06:54;3.00;3.00;2.20
49343;PMS5003;35210;41.606;-87.602;2023-10-09T01:09:34;2.00;2.00;2.00
49343;PMS5003;35210;41.606;-87.602;2023-10-09T01:12:03;4.00;4.00;3.00
49343;PMS5003;35210;41.606;-87.602;2023-10-09T01:14:33;5.00;4.00;3.60
49343;PMS5003;35210;41.606;-87.602;2023-10-09T01:17:04;4.00;4.00;3.00
49343;PMS5003;35210;41.606;-87.602;2023-10-09T01:19:54;6.00;4.40;3.00
49343;PMS5003;35210;41.606;-87.602;2023-10-09T01:22:30;3.20;3.20;1.60
49343;PMS5003;35210;41.606;-87.602;2023-10-09T01:25:00;6.80;6.00;4.00
49343;PMS5003;35210;41.606;-87.602;2023-10-09T01:27:31;5.00;5.00;4.00
49343;PMS5003;35210;41.606;-87.602;2023-10-09T01:29:59;5.60;5.60;4.00
49343;PMS5003;35210;41.606;-87.602;2023-10-09T01:32:28;4.80;4.00;3.00
49343;PMS5003;35210;41.606;-87.602;2023-10-09T01:34:56;4.20;3.80;3.00
49343;PMS5003;35210;41.606;-87.602;2023-10-09T01:37:25;6.00;4.80;3.20
49343;PMS5003;35210;41.606;-87.602;2023-10-09T01:39:55;5.60;5.60;4.20
49343;PMS5003;35210;41.606;-87.602;2023-10-09T01:42:26;5.00;5.00;3.80
49343;PMS5003;35210;41.606;-87.602;2023-10-09T01:44:59;5.40;5.00;4.00
49343;PMS5003;35210;41.606;-87.602;2023-10-09T01:47:36;1.00;0.80;0.00
49343;PMS5003;35210;41.606;-87.602;2023-10-09T01:50:11;7.40;5.60;3.20
49343;PMS5003;35210;41.606;-87.602;2023-10-09T01:52:46;5.40;5.40;3.00
49343;PMS5003;35210;41.606;-87.602;2023-10-09T01:55:14;6.80;6.80;4.60
49343;PMS5003;35210;41.606;-87.602;2023-10-09T01:57:55;5.20;5.20;3.20
49343;PMS5003;35210;41.606;-87.602;2023-10-09T02:00:27;7.00;5.80;4.80
49343;PMS5003;35210;41.606;-87.602;2023-10-09T02:02:55;6.20;6.20;4.80
49343;PMS5003;35210;41.606;-87.602;2023-10-09T02:05:28;7.20;7.00;4.60
49343;PMS5003;35210;41.606;-87.602;2023-10-09T02:07:59;8.00;8.00;5.00
49343;PMS5003;35210;41.606;-87.602;2023-10-09T02:10:29;5.20;5.20;3.00
49343;PMS5003;35210;41.606;-87.602;2023-10-09T02:13:05;7.40;6.00;4.00
49343;PMS5003;35210;41.606;-87.602;2023-10-09T02:15:36;6.60;6.60;5.60
49343;PMS5003;35210;41.606;-87.602;2023-10-09T02:18:17;8.80;6.20;5.20
49343;PMS5003;35210;41.606;-87.602;2023-10-09T02:20:52;8.00;7.00;5.00
49343;PMS5003;35210;41.606;-87.602;2023-10-09T02:23:38;4.80;4.40;3.00
49343;PMS5003;35210;41.606;-87.602;2023-10-09T02:26:11;5.80;5.80;4.00
49343;PMS5003;35210;41.606;-87.602;2023-10-09T02:28:46;7.40;6.40;5.00
49343;PMS5003;35210;41.606;-87.602;2023-10-09T02:31:24;7.80;6.20;4.00
49343;PMS5003;35210;41.606;-87.602;2023-10-09T02:33:53;10.20;9.20;6.40
49343;PMS5003;35210;41.606;-87.602;2023-10-09T02:36:22;7.00;7.00;6.00
49343;PMS5003;35210;41.606;-87.602;2023-10-09T02:38:55;9.80;9.80;7.80
49343;PMS5003;35210;41.606;-87.602;2023-10-09T02:41:23;8.80;8.80;5.80
49343;PMS5003;35210;41.606;-87.602;2023-10-09T02:43:55;8.00;8.00;6.20
49343;PMS5003;35210;41.606;-87.602;2023-10-09T02:46:36;10.00;9.00;6.20
49343;PMS5003;35210;41.606;-87.602;2023-10-09T02:49:06;9.00;9.00;6.00
49343;PMS5003;35210;41.606;-87.602;2023-10-09T02:51:35;9.60;7.40;6.00
49343;PMS5003;35210;41.606;-87.602;2023-10-09T02:54:07;10.00;9.00;7.00
49343;PMS5003;35210;41.606;-87.602;2023-10-09T02:56:53;11.00;9.80;6.80
49343;PMS5003;35210;41.606;-87.602;2023-10-09T02:59:32;11.80;9.00;6.80
49343;PMS5003;35210;41.606;-87.602;2023-10-09T03:02:04;10.20;8.20;5.00
49343;PMS5003;35210;41.606;-87.602;2023-10-09T03:04:32;10.00;9.00;6.20
49343;PMS5003;35210;41.606;-87.602;2023-10-09T03:07:03;11.80;9.00;6.80
49343;PMS5003;35210;41.606;-87.602;2023-10-09T03:09:33;9.20;7.40;5.60
49343;PMS5003;35210;41.606;-87.602;2023-10-09T03:12:03;9.00;9.00;5.60
49343;PMS5003;35210;41.606;-87.602;2023-10-09T03:14:37;7.60;6.00;4.20
49343;PMS5003;35210;41.606;-87.602;2023-10-09T03:17:06;11.60;9.80;6.40
49343;PMS5003;35210;41.606;-87.602;2023-10-09T03:19:36;7.00;6.20;4.20
49343;PMS5003;35210;41.606;-87.602;2023-10-09T03:22:05;9.00;8.80;5.40
49343;PMS5003;35210;41.606;-87.602;2023-10-09T03:24:34;11.20;8.00;5.20
49343;PMS5003;35210;41.606;-87.602;2023-10-09T03:27:04;8.80;6.80;5.40
49343;PMS5003;35210;41.606;-87.602;2023-10-09T03:29:32;6.80;6.40;4.40
49343;PMS5003;35210;41.606;-87.602;2023-10-09T03:32:02;7.60;7.00;5.80
49343;PMS5003;35210;41.606;-87.602;2023-10-09T03:34:32;8.80;7.80;6.00
49343;PMS5003;35210;41.606;-87.602;2023-10-09T03:37:00;8.40;7.60;6.40
49343;PMS5003;35210;41.606;-87.602;2023-10-09T03:39:31;7.20;6.20;5.00
49343;PMS5003;35210;41.606;-87.602;2023-10-09T03:42:06;9.60;8.00;6.00
49343;PMS5003;35210;41.606;-87.602;2023-10-09T03:44:44;6.80;5.20;3.00
49343;PMS5003;35210;41.606;-87.602;2023-10-09T03:47:19;7.80;7.40;4.80
49343;PMS5003;35210;41.606;-87.602;2023-10-09T03:49:49;7.80;7.80;6.00
49343;PMS5003;35210;41.606;-87.602;2023-10-09T03:52:19;6.60;6.60;4.80
49343;PMS5003;35210;41.606;-87.602;2023-10-09T03:54:51;6.60;5.20;4.00
49343;PMS5003;35210;41.606;-87.602;2023-10-09T03:57:20;8.80;7.40;5.00
49343;PMS5003;35210;41.606;-87.602;2023-10-09T03:59:49;9.40;8.40;6.00
49343;PMS5003;35210;41.606;-87.602;2023-10-09T04:02:17;8.60;5.60;4.00
49343;PMS5003;35210;41.606;-87.602;2023-10-09T04:04:49;9.00;9.00;6.60
49343;PMS5003;35210;41.606;-87.602;2023-10-09T04:07:17;9.20;8.00;5.80
49343;PMS5003;35210;41.606;-87.602;2023-10-09T04:09:45;9.20;6.80;5.20
49343;PMS5003;35210;41.606;-87.602;2023-10-09T04:12:19;6.40;6.40;4.60
49343;PMS5003;35210;41.606;-87.602;2023-10-09T04:14:50;6.20;6.00;4.80
49343;PMS5003;35210;41.606;-87.602;2023-10-09T04:17:22;8.20;7.80;7.00
49343;PMS5003;35210;41.606;-87.602;2023-10-09T04:19:58;10.40;7.80;6.20
49343;PMS5003;35210;41.606;-87.602;2023-10-09T04:23:13;7.20;6.00;4.40
49343;PMS5003;35210;41.606;-87.602;2023-10-09T04:25:46;9.20;9.00;6.00
49343;PMS5003;35210;41.606;-87.602;2023-10-09T04:28:16;9.60;8.40;7.00
49343;PMS5003;35210;41.606;-87.602;2023-10-09T04:30:45;11.20;9.00;6.00
49343;PMS5003;35210;41.606;-87.602;2023-10-09T04:33:20;10.00;8.80;7.00
49343;PMS5003;35210;41.606;-87.602;2023-10-09T04:36:08;9.80;8.80;6.60
49343;PMS5003;35210;41.606;-87.602;2023-10-09T04:38:51;12.40;12.40;8.00
49343;PMS5003;35210;41.606;-87.602;2023-10-09T04:41:41;14.20;9.80;7.40
49343;PMS5003;35210;41.606;-87.602;2023-10-09T04:44:25;10.20;8.00;4.60
49343;PMS5003;35210;41.606;-87.602;2023-10-09T04:47:02;10.20;8.00;4.80
49343;PMS5003;35210;41.606;-87.602;2023-10-09T04:49:53;11.40;9.80;7.00
49343;PMS5003;35210;41.606;-87.602;2023-10-09T04:52:37;9.20;8.00;6.60
49343;PMS5003;35210;41.606;-87.602;2023-10-09T04:55:19;9.00;9.00;5.00
49343;PMS5003;35210;41.606;-87.602;2023-10-09T04:57:50;9.00;7.00;5.60
49343;PMS5003;35210;41.606;-87.602;2023-10-09T05:00:34;9.80;9.80;7.00
49343;PMS5003;35210;41.606;-87.602;2023-10-09T05:03:28;12.80;8.60;6.00
49343;PMS5003;35210;41.606;-87.602;2023-10-09T05:06:10;7.40;7.40;4.20
49343;PMS5003;35210;41.606;-87.602;2023-10-09T05:08:58;11.20;9.60;6.80
49343;PMS5003;35210;41.606;-87.602;2023-10-09T05:11:34;11.60;10.00;6.20
49343;PMS5003;35210;41.606;-87.602;2023-10-09T05:14:18;7.60;7.60;6.00
49343;PMS5003;35210;41.606;-87.602;2023-10-09T05:17:04;12.40;11.20;6.00
49343;PMS5003;35210;41.606;-87.602;2023-10-09T05:19:41;8.80;8.00;5.80
49343;PMS5003;35210;41.606;-87.602;2023-10-09T05:22:22;9.80;9.80;5.80
49343;PMS5003;35210;41.606;-87.602;2023-10-09T05:25:05;8.00;7.20;6.00
49343;PMS5003;35210;41.606;-87.602;2023-10-09T05:27:41;6.80;6.00;3.80
49343;PMS5003;35210;41.606;-87.602;2023-10-09T05:30:16;15.60;11.20;7.00
49343;PMS5003;35210;41.606;-87.602;2023-10-09T05:32:53;11.00;11.00;7.00
49343;PMS5003;35210;41.606;-87.602;2023-10-09T05:35:53;10.60;10.40;7.00
49343;PMS5003;35210;41.606;-87.602;2023-10-09T05:38:41;9.00;9.00;6.00
49343;PMS5003;35210;41.606;-87.602;2023-10-09T05:41:24;9.40;8.40;7.20
49343;PMS5003;35210;41.606;-87.602;2023-10-09T05:44:13;12.00;10.40;6.00
49343;PMS5003;35210;41.606;-87.602;2023-10-09T05:46:58;8.20;7.40;7.00
49343;PMS5003;35210;41.606;-87.602;2023-10-09T05:49:43;8.60;7.20;5.40
49343;PMS5003;35210;41.606;-87.602;2023-10-09T05:52:21;8.80;6.00;5.20
49343;PMS5003;35210;41.606;-87.602;2023-10-09T05:55:10;11.20;11.20;7.20
49343;PMS5003;35210;41.606;-87.602;2023-10-09T05:58:14;8.00;8.00;5.20
49343;PMS5003;35210;41.606;-87.602;2023-10-09T06:00:59;6.20;6.00;4.00
49343;PMS5003;35210;41.606;-87.602;2023-10-09T06:03:47;9.40;8.00;5.60
49343;PMS5003;35210;41.606;-87.602;2023-10-09T06:06:30;10.80;10.20;6.80
49343;PMS5003;35210;41.606;-87.602;2023-10-09T06:09:00;11.20;8.00;5.80
49343;PMS5003;35210;41.606;-87.602;2023-10-09T06:11:48;12.20;9.40;7.40
49343;PMS5003;35210;41.606;-87.602;2023-10-09T06:14:21;12.00;10.40;7.80
49343;PMS5003;35210;41.606;-87.602;2023-10-09T06:17:12;5.20;5.20;4.00
49343;PMS5003;35210;41.606;-87.602;2023-10-09T06:19:49;11.60;11.60;7.40
49343;PMS5003;35210;41.606;-87.602;2023-10-09T06:22:24;13.60;13.60;10.40
49343;PMS5003;35210;41.606;-87.602;2023-10-09T06:25:09;12.60;12.40;8.40
49343;PMS5003;35210;41.606;-87.602;2023-10-09T06:27:40;15.00;12.60;8.40
49343;PMS5003;35210;41.606;-87.602;2023-10-09T06:30:24;11.80;10.20;6.60
49343;PMS5003;35210;41.606;-87.602;2023-10-09T06:32:53;12.80;10.40;8.00
49343;PMS5003;35210;41.606;-87.602;2023-10-09T06:35:45;11.60;11.60;9.00
49343;PMS5003;35210;41.606;-87.602;2023-10-09T06:38:20;14.20;12.80;10.20
49343;PMS5003;35210;41.606;-87.602;2023-10-09T06:40:48;16.60;15.80;12.00
49343;PMS5003;35210;41.606;-87.602;2023-10-09T06:43:36;14.60;13.60;10.00
49343;PMS5003;35210;41.606;-87.602;2023-10-09T06:46:14;14.00;14.00;11.00
49343;PMS5003;35210;41.606;-87.602;2023-10-09T06:49:00;21.20;18.60;13.40
49343;PMS5003;35210;41.606;-87.602;2023-10-09T06:51:48;21.40;20.00;14.80
49343;PMS5003;35210;41.606;-87.602;2023-10-09T06:54:21;23.80;18.80;14.60
49343;PMS5003;35210;41.606;-87.602;2023-10-09T06:56:52;17.20;17.20;12.60
49343;PMS5003;35210;41.606;-87.602;2023-10-09T06:59:38;12.80;12.80;8.00
49343;PMS5003;35210;41.606;-87.602;2023-10-09T07:02:30;16.60;15.60;12.00
49343;PMS5003;35210;41.606;-87.602;2023-10-09T07:05:11;14.00;14.00;10.20
49343;PMS5003;35210;41.606;-87.602;2023-10-09T07:07:43;12.40;11.20;7.00
49343;PMS5003;35210;41.606;-87.602;2023-10-09T07:10:20;15.40;12.60;9.60
49343;PMS5003;35210;41.606;-87.602;2023-10-09T07:13:05;12.80;12.00;9.60
49343;PMS5003;35210;41.606;-87.602;2023-10-09T07:15:33;13.40;13.00;8.80
49343;PMS5003;35210;41.606;-87.602;2023-10-09T07:18:18;15.20;13.80;9.00
49343;PMS5003;35210;41.606;-87.602;2023-10-09T07:20:49;14.00;11.40;6.80
49343;PMS5003;35210;41.606;-87.602;2023-10-09T07:23:27;11.20;10.60;7.00
49343;PMS5003;35210;41.606;-87.602;2023-10-09T07:26:02;10.80;10.60;8.40
49343;PMS5003;35210;41.606;-87.602;2023-10-09T07:28:45;11.00;9.00;6.80
49343;PMS5003;35210;41.606;-87.602;2023-10-09T07:31:35;9.80;9.80;6.80
49343;PMS5003;35210;41.606;-87.602;2023-10-09T07:34:10;7.60;7.60;6.20
49343;PMS5003;35210;41.606;-87.602;2023-10-09T07:36:56;6.80;6.80;5.00
49343;PMS5003;35210;41.606;-87.602;2023-10-09T07:39:30;10.80;9.80;5.60
49343;PMS5003;35210;41.606;-87.602;2023-10-09T07:42:03;9.20;9.20;5.00
49343;PMS5003;35210;41.606;-87.602;2023-10-09T07:44:52;6.20;6.20;5.00
49343;PMS5003;35210;41.606;-87.602;2023-10-09T07:47:25;10.00;8.00;4.80
49343;PMS5003;35210;41.606;-87.602;2023-10-09T07:50:15;6.40;6.40;5.00
49343;PMS5003;35210;41.606;-87.602;2023-10-09T07:52:46;3.80;3.60;2.40
49343;PMS5003;35210;41.606;-87.602;2023-10-09T07:55:15;4.00;4.00;3.00
49343;PMS5003;35210;41.606;-87.602;2023-10-09T07:58:04;5.80;3.00;2.20
49343;PMS5003;35210;41.606;-87.602;2023-10-09T08:00:37;6.60;5.80;4.80
49343;PMS5003;35210;41.606;-87.602;2023-10-09T08:03:33;10.40;7.40;4.60
49343;PMS5003;35210;41.606;-87.602;2023-10-09T08:06:01;9.60;6.60;5.00
49343;PMS5003;35210;41.606;-87.602;2023-10-09T08:08:49;7.40;7.40;4.60
49343;PMS5003;35210;41.606;-87.602;2023-10-09T08:11:44;6.40;5.00;4.00
49343;PMS5003;35210;41.606;-87.602;2023-10-09T08:14:40;8.20;6.60;4.60
49343;PMS5003;35210;41.606;-87.602;2023-10-09T08:17:11;9.40;7.60;5.00
49343;PMS5003;35210;41.606;-87.602;2023-10-09T08:19:46;7.40;7.40;5.40
49343;PMS5003;35210;41.606;-87.602;2023-10-09T08:22:26;6.40;6.40;4.00
49343;PMS5003;35210;41.606;-87.602;2023-10-09T08:25:08;8.00;6.00;4.80
49343;PMS5003;35210;41.606;-87.602;2023-10-09T08:27:50;4.40;4.40;2.40
49343;PMS5003;35210;41.606;-87.602;2023-10-09T08:30:23;9.60;8.40;5.40
49343;PMS5003;35210;41.606;-87.602;2023-10-09T08:32:54;10.60;9.00;6.00
49343;PMS5003;35210;41.606;-87.602;2023-10-09T08:35:30;6.00;6.00;4.60
49343;PMS5003;35210;41.606;-87.602;2023-10-09T08:37:59;7.80;7.20;5.00
49343;PMS5003;35210;41.606;-87.602;2023-10-09T08:40:33;7.20;7.20;4.40
49343;PMS5003;35210;41.606;-87.602;2023-10-09T08:43:07;10.00;10.00;6.40
49343;PMS5003;35210;41.606;-87.602;2023-10-09T08:45:44;10.60;9.60;6.60
49343;PMS5003;35210;41.606;-87.602;2023-10-09T08:48:13;10.80;9.40;6.60
49343;PMS5003;35210;41.606;-87.602;2023-10-09T08:50:45;8.00;7.80;5.20
49343;PMS5003;35210;41.606;-87.602;2023-10-09T08:53:15;6.40;6.40;4.00
49343;PMS5003;35210;41.606;-87.602;2023-10-09T08:55:44;10.20;9.20;5.00
49343;PMS5003;35210;41.606;-87.602;2023-10-09T08:58:14;10.00;8.20;6.00
49343;PMS5003;35210;41.606;-87.602;2023-10-09T09:00:46;5.00;5.00;3.00
49343;PMS5003;35210;41.606;-87.602;2023-10-09T09:03:15;7.40;7.40;5.60
49343;PMS5003;35210;41.606;-87.602;2023-10-09T09:05:46;9.00;7.00;4.20
49343;PMS5003;35210;41.606;-87.602;2023-10-09T09:08:24;6.60;6.60;4.20
49343;PMS5003;35210;41.606;-87.602;2023-10-09T09:10:57;10.60;10.00;6.60
49343;PMS5003;35210;41.606;-87.602;2023-10-09T09:13:37;7.00;5.80;4.60
49343;PMS5003;35210;41.606;-87.602;2023-10-09T09:16:14;8.40;8.40;5.60
49343;PMS5003;35210;41.606;-87.602;2023-10-09T09:18:50;8.40;8.40;5.80
49343;PMS5003;35210;41.606;-87.602;2023-10-09T09:21:28;7.40;5.80;4.20
49343;PMS5003;35210;41.606;-87.602;2023-10-09T09:24:04;6.00;5.80;3.80
49343;PMS5003;35210;41.606;-87.602;2023-10-09T09:26:41;9.40;9.40;8.20
49343;PMS5003;35210;41.606;-87.602;2023-10-09T09:29:13;11.60;9.80;7.60
49343;PMS5003;35210;41.606;-87.602;2023-10-09T09:31:54;13.40;12.60;8.00
49343;PMS5003;35210;41.606;-87.602;2023-10-09T09:34:33;13.20;10.00;5.80
49343;PMS5003;35210;41.606;-87.602;2023-10-09T09:37:20;10.00;9.80;5.40
49343;PMS5003;35210;41.606;-87.602;2023-10-09T09:39:49;11.60;10.40;6.00
49343;PMS5003;35210;41.606;-87.602;2023-10-09T09:42:19;8.20;8.20;5.00
49343;PMS5003;35210;41.606;-87.602;2023-10-09T09:44:51;8.60;5.80;5.60
49343;PMS5003;35210;41.606;-87.602;2023-10-09T09:47:19;13.00;7.60;5.80
49343;PMS5003;35210;41.606;-87.602;2023-10-09T09:49:52;8.60;7.00;4.00
49343;PMS5003;35210;41.606;-87.602;2023-10-09T09:52:27;10.60;10.00;6.00
49343;PMS5003;35210;41.606;-87.602;2023-10-09T09:55:04;9.80;9.80;6.00
49343;PMS5003;35210;41.606;-87.602;2023-10-09T09:57:39;6.40;6.40;4.60
49343;PMS5003;35210;41.606;-87.602;2023-10-09T10:00:11;12.40;10.60;5.40
49343;PMS5003;35210;41.606;-87.602;2023-10-09T10:02:54;9.80;9.60;7.80
49343;PMS5003;35210;41.606;-87.602;2023-10-09T10:05:28;7.40;7.40;5.60
49343;PMS5003;35210;41.606;-87.602;2023-10-09T10:07:59;11.20;10.00;8.00
49343;PMS5003;35210;41.606;-87.602;2023-10-09T10:10:34;9.40;8.60;5.80
49343;PMS5003;35210;41.606;-87.602;2023-10-09T10:13:14;7.40;7.40;5.40
49343;PMS5003;35210;41.606;-87.602;2023-10-09T10:15:57;11.20;10.00;6.00
49343;PMS5003;35210;41.606;-87.602;2023-10-09T10:18:53;6.80;5.00;4.00
49343;PMS5003;35210;41.606;-87.602;2023-10-09T10:21:25;9.20;9.20;6.80
49343;PMS5003;35210;41.606;-87.602;2023-10-09T10:24:06;11.80;9.80;6.00
49343;PMS5003;35210;41.606;-87.602;2023-10-09T10:27:25;8.20;6.00;5.00
49343;PMS5003;35210;41.606;-87.602;2023-10-09T10:33:02;11.20;9.00;6.00
49343;PMS5003;35210;41.606;-87.602;2023-10-09T10:35:41;10.20;7.60;5.00
49343;PMS5003;35210;41.606;-87.602;2023-10-09T10:38:25;8.80;5.60;5.20
49343;PMS5003;35210;41.606;-87.602;2023-10-09T10:41:14;10.80;9.20;8.00
49343;PMS5003;35210;41.606;-87.602;2023-10-09T10:43:43;6.20;6.20;4.60
49343;PMS5003;35210;41.606;-87.602;2023-10-09T10:46:30;9.40;7.00;5.00
49343;PMS5003;35210;41.606;-87.602;2023-10-09T10:49:00;9.20;8.20;5.60
49343;PMS5003;35210;41.606;-87.602;2023-10-09T10:51:40;6.60;5.40;2.40
49343;PMS5003;35210;41.606;-87.602;2023-10-09T10:54:20;8.40;7.60;5.40
49343;PMS5003;35210;41.606;-87.602;2023-10-09T10:57:19;9.60;8.60;5.60
49343;PMS5003;35210;41.606;-87.602;2023-10-09T11:00:17;7.00;7.00;5.80
49343;PMS5003;35210;41.606;-87.602;2023-10-09T11:02:58;6.60;5.60;4.40
49343;PMS5003;35210;41.606;-87.602;2023-10-09T11:05:41;6.80;6.40;5.00
49343;PMS5003;35210;41.606;-87.602;2023-10-09T11:08:16;7.40;6.20;4.40
49343;PMS5003;35210;41.606;-87.602;2023-10-09T11:10:49;11.20;6.40;4.00
49343;PMS5003;35210;41.606;-87.602;2023-10-09T11:13:24;7.40;7.40;4.00
49343;PMS5003;35210;41.606;-87.602;2023-10-09T11:15:59;6.00;6.00;4.00
49343;PMS5003;35210;41.606;-87.602;2023-10-09T11:18:54;8.40;4.80;3.60
49343;PMS5003;35210;41.606;-87.602;2023-10-09T11:21:30;7.80;7.60;4.80
49343;PMS5003;35210;41.606;-87.602;2023-10-09T11:24:07;9.80;6.00;5.00
49343;PMS5003;35210;41.606;-87.602;2023-10-09T11:26:53;5.80;5.80;4.00
49343;PMS5003;35210;41.606;-87.602;2023-10-09T11:29:24;9.00;7.20;4.60
49343;PMS5003;35210;41.606;-87.602;2023-10-09T11:32:18;14.20;9.40;5.20
49343;PMS5003;35210;41.606;-87.602;2023-10-09T11:34:50;9.00;4.80;3.00
49343;PMS5003;35210;41.606;-87.602;2023-10-09T11:37:36;7.00;7.00;4.40
49343;PMS5003;35210;41.606;-87.602;2023-10-09T11:40:05;7.40;7.40;5.00
49343;PMS5003;35210;41.606;-87.602;2023-10-09T11:42:48;8.80;6.00;4.00
49343;PMS5003;35210;41.606;-87.602;2023-10-09T11:45:24;6.20;6.20;5.00
49343;PMS5003;35210;41.606;-87.602;2023-10-09T11:47:57;6.40;6.00;4.20
49343;PMS5003;35210;41.606;-87.602;2023-10-09T11:50:46;5.00;5.00;3.00
49343;PMS5003;35210;41.606;-87.602;2023-10-09T11:53:16;6.80;5.20;3.00
49343;PMS5003;35210;41.606;-87.602;2023-10-09T11:55:59;4.80;4.80;4.00
49343;PMS5003;35210;41.606;-87.602;2023-10-09T11:58:27;5.60;4.80;3.00
49343;PMS5003;35210;41.606;-87.602;2023-10-09T12:00:58;4.40;4.40;3.60
49343;PMS5003;35210;41.606;-87.602;2023-10-09T12:03:43;4.20;4.20;3.00
49343;PMS5003;35210;41.606;-87.602;2023-10-09T12:06:15;5.80;4.60;2.80
49343;PMS5003;35210;41.606;-87.602;2023-10-09T12:08:45;5.40;4.00;3.00
49343;PMS5003;35210;41.606;-87.602;2023-10-09T12:11:14;8.80;6.20;4.00
49343;PMS5003;35210;41.606;-87.602;2023-10-09T12:13:48;2.80;2.80;1.80
49343;PMS5003;35210;41.606;-87.602;2023-10-09T12:16:26;4.00;4.00;3.00
49343;PMS5003;35210;41.606;-87.602;2023-10-09T12:18:58;5.40;4.40;2.80
49343;PMS5003;35210;41.606;-87.602;2023-10-09T12:21:28;4.80;3.20;2.00
49343;PMS5003;35210;41.606;-87.602;2023-10-09T12:23:56;3.40;3.40;3.00
49343;PMS5003;35210;41.606;-87.602;2023-10-09T12:26:26;2.00;2.00;2.00
49343;PMS5003;35210;41.606;-87.602;2023-10-09T12:29:00;4.20;3.00;1.40
49343;PMS5003;35210;41.606;-87.602;2023-10-09T12:31:31;3.00;2.20;1.60
49343;PMS5003;35210;41.606;-87.602;2023-10-09T12:33:59;3.00;2.40;2.00
49343;PMS5003;35210;41.606;-87.602;2023-10-09T12:36:27;3.20;3.20;2.20
49343;PMS5003;35210;41.606;-87.602;2023-10-09T12:38:56;3.00;3.00;2.00
49343;PMS5003;35210;41.606;-87.602;2023-10-09T12:41:26;5.40;3.40;2.80
49343;PMS5003;35210;41.606;-87.602;2023-10-09T12:43:59;5.00;4.00;3.00
49343;PMS5003;35210;41.606;-87.602;2023-10-09T12:46:27;4.20;4.20;3.00
49343;PMS5003;35210;41.606;-87.602;2023-10-09T12:49:04;4.20;3.80;2.00
49343;PMS5003;35210;41.606;-87.602;2023-10-09T12:51:32;3.00;3.00;2.20
49343;PMS5003;35210;41.606;-87.602;2023-10-09T12:54:00;3.20;3.00;2.60
49343;PMS5003;35210;41.606;-87.602;2023-10-09T12:56:28;5.20;3.20;2.00
49343;PMS5003;35210;41.606;-87.602;2023-10-09T12:59:02;3.00;3.00;2.00
49343;PMS5003;35210;41.606;-87.602;2023-10-09T13:01:32;3.00;3.00;2.00
49343;PMS5003;35210;41.606;-87.602;2023-10-09T13:04:09;3.60;2.40;1.80
49343;PMS5003;35210;41.606;-87.602;2023-10-09T13:06:41;1.20;1.20;0.80
49343;PMS5003;35210;41.606;-87.602;2023-10-09T13:09:10;2.60;1.40;1.00
49343;PMS5003;35210;41.606;-87.602;2023-10-09T13:11:39;2.60;2.00;1.00
49343;PMS5003;35210;41.606;-87.602;2023-10-09T13:14:08;1.00;1.00;0.80
49343;PMS5003;35210;41.606;-87.602;2023-10-09T13:16:42;3.20;3.20;2.00
49343;PMS5003;35210;41.606;-87.602;2023-10-09T13:19:12;1.60;1.20;1.20
49343;PMS5003;35210;41.606;-87.602;2023-10-09T13:21:40;4.20;3.00;2.00
49343;PMS5003;35210;41.606;-87.602;2023-10-09T13:24:08;1.60;1.60;1.00
49343;PMS5003;35210;41.606;-87.602;2023-10-09T13:26:41;5.00;2.00;1.60
49343;PMS5003;35210;41.606;-87.602;2023-10-09T13:29:11;4.40;2.20;1.20
49343;PMS5003;35210;41.606;-87.602;2023-10-09T13:31:39;0.40;0.40;0.40
49343;PMS5003;35210;41.606;-87.602;2023-10-09T13:34:13;3.20;2.00;2.00
49343;PMS5003;35210;41.606;-87.602;2023-10-09T13:36:42;3.20;2.00;1.00
49343;PMS5003;35210;41.606;-87.602;2023-10-09T13:39:15;2.00;1.40;1.00
49343;PMS5003;35210;41.606;-87.602;2023-10-09T13:41:48;2.00;2.00;1.00
49343;PMS5003;35210;41.606;-87.602;2023-10-09T13:44:23;2.60;2.00;1.60
49343;PMS5003;35210;41.606;-87.602;2023-10-09T13:46:53;3.00;2.00;2.00
49343;PMS5003;35210;41.606;-87.602;2023-10-09T13:49:23;2.80;2.80;2.00
49343;PMS5003;35210;41.606;-87.602;2023-10-09T13:51:56;2.80;2.80;1.00
49343;PMS5003;35210;41.606;-87.602;2023-10-09T13:54:24;3.00;2.00;2.00
49343;PMS5003;35210;41.606;-87.602;2023-10-09T13:57:05;1.20;1.20;1.00
49343;PMS5003;35210;41.606;-87.602;2023-10-09T13:59:36;2.60;2.60;1.00
49343;PMS5003;35210;41.606;-87.602;2023-10-09T14:02:09;2.00;2.00;1.00
49343;PMS5003;35210;41.606;-87.602;2023-10-09T14:04:44;2.20;1.40;1.00
49343;PMS5003;35210;41.606;-87.602;2023-10-09T14:07:13;2.40;2.40;1.60
49343;PMS5003;35210;41.606;-87.602;2023-10-09T14:09:43;1.00;1.00;1.00
49343;PMS5003;35210;41.606;-87.602;2023-10-09T14:12:20;1.60;1.60;1.60
49343;PMS5003;35210;41.606;-87.602;2023-10-09T14:14:50;2.00;2.00;1.00
49343;PMS5003;35210;41.606;-87.602;2023-10-09T14:17:20;2.20;2.20;1.60
49343;PMS5003;35210;41.606;-87.602;2023-10-09T14:19:52;3.20;2.20;1.00
49343;PMS5003;35210;41.606;-87.602;2023-10-09T14:22:26;1.60;1.00;1.00
49343;PMS5003;35210;41.606;-87.602;2023-10-09T14:24:55;1.40;1.00;0.00
49343;PMS5003;35210;41.606;-87.602;2023-10-09T14:27:25;2.00;2.00;1.00
49343;PMS5003;35210;41.606;-87.602;2023-10-09T14:29:55;1.60;1.20;1.00
49343;PMS5003;35210;41.606;-87.602;2023-10-09T14:32:25;1.00;1.00;0.00
49343;PMS5003;35210;41.606;-87.602;2023-10-09T14:34:56;2.00;1.00;0.40
49343;PMS5003;35210;41.606;-87.602;2023-10-09T14:37:26;2.60;1.60;1.00
49343;PMS5003;35210;41.606;-87.602;2023-10-09T14:39:55;2.00;1.00;1.00
49343;PMS5003;35210;41.606;-87.602;2023-10-09T14:42:24;3.20;2.60;1.00
49343;PMS5003;35210;41.606;-87.602;2023-10-09T14:44:54;2.80;1.80;0.60